Green Hill, Arkansas
Current Conditions -  °F | °C
As of 12:53 AM on Wednesday 22 Oct 2014 (Local Time) from KLLQ Reporting Station
Clear Clear  
Wind Chill: 55°   Ceiling: Unl
Heat Index: 55°   Visibility: 10mi
Dew Point: 52°   Wind: 0mph
Humidity: 89%   Direction: NA
Pressure: 30.09"   Gusts: NA
Location:  33.6204°N, 91.9247°W
Report Text: KLLQ 220553Z AUTO 00000KT 10SM CLR 13/11 A3009 RMK AO2 SLP185 60000 T01280111 10183 20122 402670122 50000
Loading
Personal Weather Stations






























Interactive Weather Map
Tropical Storm Tracking
New forecast layout! Learn more

10-Day Weather Forecast

Advertisements
Track Severe Weather on mobile